createdAt,value
2023-04-09T00:01:42.005Z,78.84
2023-04-09T00:04:08.540Z,79.49
2023-04-09T00:06:35.141Z,78.95
2023-04-09T00:09:01.575Z,78.93
2023-04-09T00:11:28.052Z,78.61
2023-04-09T00:13:54.490Z,78.56
2023-04-09T00:16:20.903Z,78.20
2023-04-09T00:18:47.428Z,77.99
2023-04-09T00:21:13.925Z,77.88
2023-04-09T00:23:40.500Z,77.86
2023-04-09T00:26:07.009Z,77.73
2023-04-09T00:28:33.809Z,77.52
2023-04-09T00:31:00.449Z,77.89
2023-04-09T00:33:27.151Z,77.60
2023-04-09T00:35:53.932Z,77.56
2023-04-09T00:38:20.379Z,77.64
2023-04-09T00:40:50.706Z,77.79
2023-04-09T00:43:17.977Z,77.65
2023-04-09T00:45:45.064Z,78.20
2023-04-09T00:48:13.385Z,78.41
2023-04-09T00:50:40.029Z,77.96
2023-04-09T00:53:06.467Z,77.73
2023-04-09T00:55:33.013Z,77.59
2023-04-09T00:57:59.664Z,77.47
2023-04-09T01:00:28.023Z,77.25
2023-04-09T01:02:56.872Z,77.37
2023-04-09T01:05:26.894Z,77.63
2023-04-09T01:07:56.128Z,77.75
2023-04-09T01:10:36.421Z,77.56
2023-04-09T01:13:15.725Z,77.83
2023-04-09T01:15:51.189Z,77.52
2023-04-09T01:18:23.520Z,77.46
2023-04-09T01:20:59.413Z,77.97
2023-04-09T01:24:19.883Z,78.32
2023-04-09T01:27:01.484Z,78.32
2023-04-09T01:29:33.634Z,77.73
2023-04-09T01:32:02.304Z,77.91
2023-04-09T01:34:29.273Z,78.05
2023-04-09T01:36:58.302Z,77.81
2023-04-09T01:39:25.525Z,77.46
2023-04-09T01:41:52.692Z,77.69
2023-04-09T01:44:19.914Z,77.76
2023-04-09T01:46:50.132Z,77.58
2023-04-09T01:49:17.616Z,77.84
2023-04-09T01:51:44.419Z,77.84
2023-04-09T01:54:10.917Z,77.83
2023-04-09T01:56:45.422Z,78.14
2023-04-09T01:59:12.025Z,77.74
2023-04-09T02:01:44.360Z,77.42
2023-04-09T02:04:23.152Z,77.49
2023-04-09T02:06:59.690Z,77.52
2023-04-09T02:09:29.048Z,77.29
2023-04-09T02:11:58.416Z,77.57
2023-04-09T02:14:26.587Z,77.08
2023-04-09T02:16:53.378Z,77.45
2023-04-09T02:19:19.902Z,77.28
2023-04-09T02:21:46.604Z,77.73
2023-04-09T02:24:13.054Z,77.42
2023-04-09T02:26:39.493Z,77.40
2023-04-09T02:29:06.128Z,77.52
2023-04-09T02:31:32.679Z,77.43
2023-04-09T02:33:59.445Z,77.40
2023-04-09T02:36:27.733Z,77.47
2023-04-09T02:38:54.338Z,77.43
2023-04-09T02:41:21.178Z,77.75
2023-04-09T02:43:47.624Z,77.69
2023-04-09T02:46:14.067Z,77.44
2023-04-09T02:48:40.553Z,77.33
2023-04-09T02:51:07.034Z,77.20
2023-04-09T02:53:33.484Z,77.23
2023-04-09T02:56:00.005Z,77.46
2023-04-09T02:58:26.429Z,77.42
2023-04-09T03:00:52.865Z,77.54
2023-04-09T03:03:19.387Z,77.46
2023-04-09T03:05:46.334Z,77.64
2023-04-09T03:08:12.739Z,77.76
2023-04-09T03:10:39.134Z,77.67
2023-04-09T03:13:05.768Z,78.03
2023-04-09T03:15:32.162Z,77.58
2023-04-09T03:17:58.627Z,77.68
2023-04-09T03:20:25.200Z,77.80
2023-04-09T03:22:51.642Z,77.70
2023-04-09T03:25:19.660Z,77.59
2023-04-09T03:27:46.313Z,78.15
2023-04-09T03:30:12.727Z,77.98
2023-04-09T03:32:39.162Z,77.32
2023-04-09T03:35:05.985Z,77.85
2023-04-09T03:37:32.436Z,77.83
2023-04-09T03:39:59.047Z,77.64
2023-04-09T03:42:25.596Z,77.54
2023-04-09T03:44:54.193Z,77.67
2023-04-09T03:47:20.863Z,77.46
2023-04-09T03:49:47.308Z,77.27
2023-04-09T03:52:13.733Z,77.36
2023-04-09T03:54:40.346Z,77.22
2023-04-09T03:57:06.812Z,77.33
2023-04-09T03:59:33.238Z,77.39
2023-04-09T04:01:59.763Z,77.34
2023-04-09T04:04:26.317Z,77.32
2023-04-09T04:06:52.886Z,77.26
2023-04-09T04:09:19.343Z,77.17
2023-04-09T04:11:45.815Z,77.35
2023-04-09T04:14:12.270Z,77.56
2023-04-09T04:16:40.869Z,77.52
2023-04-09T04:19:07.525Z,77.72
2023-04-09T04:21:34.015Z,77.27
2023-04-09T04:24:00.946Z,77.16
2023-04-09T04:26:27.389Z,77.38
2023-04-09T04:28:54.083Z,77.58
2023-04-09T04:31:20.721Z,77.10
2023-04-09T04:33:47.156Z,77.63
2023-04-09T04:36:14.242Z,77.77
2023-04-09T04:38:41.668Z,77.76
2023-04-09T04:41:08.340Z,77.40
2023-04-09T04:43:34.863Z,77.54
2023-04-09T04:46:01.339Z,77.83
2023-04-09T04:48:29.118Z,77.55
2023-04-09T04:51:00.762Z,78.03
2023-04-09T04:53:27.520Z,77.97
2023-04-09T04:55:54.164Z,78.15
2023-04-09T04:58:20.845Z,78.36
2023-04-09T05:00:47.405Z,78.23
2023-04-09T05:03:14.228Z,78.19
2023-04-09T05:05:40.686Z,78.01
2023-04-09T05:08:07.331Z,77.91
2023-04-09T05:10:33.824Z,78.14
2023-04-09T05:13:00.217Z,77.99
2023-04-09T05:15:27.079Z,78.11
2023-04-09T05:17:54.178Z,77.67
2023-04-09T05:20:20.856Z,77.87
2023-04-09T05:22:47.269Z,77.54
2023-04-09T05:25:16.097Z,77.60
2023-04-09T05:27:42.818Z,77.44
2023-04-09T05:30:09.598Z,77.38
2023-04-09T05:32:36.072Z,77.15
2023-04-09T05:35:02.532Z,76.73
2023-04-09T05:37:28.983Z,76.41
2023-04-09T05:39:56.241Z,76.32
2023-04-09T05:42:22.686Z,76.03
2023-04-09T05:44:49.161Z,75.95
2023-04-09T05:47:15.658Z,75.71
2023-04-09T05:49:42.130Z,75.58
2023-04-09T05:52:08.572Z,76.02
2023-04-09T05:54:36.450Z,76.09
2023-04-09T05:57:02.923Z,76.06
2023-04-09T05:59:29.522Z,75.77
2023-04-09T06:01:56.090Z,75.72
2023-04-09T06:04:22.733Z,75.87
2023-04-09T06:06:49.385Z,75.88
2023-04-09T06:09:16.105Z,76.25
2023-04-09T06:11:42.550Z,75.48
2023-04-09T06:14:09.016Z,75.98
2023-04-09T06:16:36.471Z,75.84
2023-04-09T06:19:02.879Z,76.17
2023-04-09T06:21:29.356Z,76.26
2023-04-09T06:23:56.021Z,76.10
2023-04-09T06:26:22.712Z,75.95
2023-04-09T06:28:49.151Z,75.73
2023-04-09T06:31:15.750Z,75.65
2023-04-09T06:33:42.257Z,75.52
2023-04-09T06:36:08.788Z,75.39
2023-04-09T06:38:35.331Z,75.39
2023-04-09T06:41:01.769Z,75.18
2023-04-09T06:43:28.161Z,74.94
2023-04-09T06:45:54.644Z,74.62
2023-04-09T06:48:21.162Z,74.89
2023-04-09T06:50:47.699Z,74.47
2023-04-09T06:53:15.433Z,74.51
2023-04-09T06:55:42.101Z,74.13
2023-04-09T06:58:08.543Z,74.14
2023-04-09T07:00:35.457Z,74.32
2023-04-09T07:03:02.506Z,74.20
2023-04-09T07:05:30.713Z,74.13
2023-04-09T07:07:57.112Z,73.96
2023-04-09T07:10:23.580Z,74.14
2023-04-09T07:12:50.049Z,74.04
2023-04-09T07:15:16.572Z,73.79
2023-04-09T07:17:43.160Z,73.02
2023-04-09T07:20:10.480Z,72.63
2023-04-09T07:22:37.010Z,72.41
2023-04-09T07:25:04.039Z,72.43
2023-04-09T07:27:30.568Z,71.94
2023-04-09T07:29:58.539Z,72.04
2023-04-09T07:32:26.246Z,72.09
2023-04-09T07:34:53.184Z,71.58
2023-04-09T07:37:20.739Z,71.22
2023-04-09T07:39:48.119Z,71.69
2023-04-09T07:42:14.614Z,71.43
2023-04-09T07:44:41.132Z,71.36
2023-04-09T07:47:08.314Z,71.48
2023-04-09T07:49:38.076Z,71.69
2023-04-09T07:52:05.536Z,71.69
2023-04-09T07:54:32.659Z,71.85
2023-04-09T07:56:59.865Z,71.51
2023-04-09T07:59:27.636Z,71.46
2023-04-09T08:01:54.258Z,71.45
2023-04-09T08:04:21.305Z,71.22
2023-04-09T08:06:50.664Z,70.96
2023-04-09T08:09:18.512Z,70.78
2023-04-09T08:11:45.825Z,71.01
2023-04-09T08:14:15.496Z,70.33
2023-04-09T08:16:47.156Z,69.89
2023-04-09T08:19:18.145Z,68.81
2023-04-09T08:21:44.681Z,68.26
2023-04-09T08:24:11.971Z,67.43
2023-04-09T08:26:42.338Z,65.73
2023-04-09T08:29:10.152Z,65.71
2023-04-09T08:31:37.442Z,64.76
2023-04-09T08:34:04.300Z,64.09
2023-04-09T08:36:32.543Z,63.32
2023-04-09T08:39:00.491Z,62.46
2023-04-09T08:41:31.259Z,60.88
2023-04-09T08:43:59.541Z,60.25
2023-04-09T08:46:27.119Z,60.02
2023-04-09T08:48:54.216Z,59.42
2023-04-09T08:51:23.107Z,58.69
2023-04-09T08:53:56.529Z,56.39
2023-04-09T08:56:23.741Z,57.37
2023-04-09T08:58:50.430Z,57.05
2023-04-09T09:01:26.621Z,56.72
2023-04-09T09:03:59.352Z,58.13
2023-04-09T09:06:32.894Z,58.22
2023-04-09T09:09:10.294Z,56.84
2023-04-09T09:11:38.333Z,56.88
2023-04-09T09:14:12.475Z,53.54
2023-04-09T09:16:43.256Z,54.58
2023-04-09T09:19:25.332Z,50.52
2023-04-09T09:21:58.186Z,51.61
2023-04-09T09:24:24.731Z,53.69
2023-04-09T09:26:51.974Z,52.64
2023-04-09T09:29:19.787Z,51.91
2023-04-09T09:31:49.103Z,51.24
2023-04-09T09:34:20.178Z,48.91
2023-04-09T09:36:46.998Z,49.74
2023-04-09T09:39:17.187Z,48.73
2023-04-09T09:41:44.829Z,47.12
2023-04-09T09:44:12.786Z,46.09
2023-04-09T09:46:42.588Z,45.17
2023-04-09T09:49:09.588Z,45.95
2023-04-09T09:51:37.327Z,44.99
2023-04-09T09:54:04.141Z,45.39
2023-04-09T09:56:35.127Z,44.06
2023-04-09T09:59:05.049Z,44.70
2023-04-09T10:01:32.512Z,43.63
2023-04-09T10:04:00.735Z,42.73
2023-04-09T10:06:27.718Z,42.14
2023-04-09T10:08:57.745Z,40.68
2023-04-09T10:11:24.689Z,40.81
2023-04-09T10:13:56.000Z,39.88
2023-04-09T10:16:23.393Z,39.58
2023-04-09T10:18:50.156Z,38.87
2023-04-09T10:21:19.348Z,38.74
2023-04-09T10:23:49.408Z,38.54
2023-04-09T10:26:18.396Z,39.31
2023-04-09T10:28:44.918Z,39.90
2023-04-09T10:31:11.656Z,39.69
2023-04-09T10:33:38.696Z,40.14
2023-04-09T10:36:12.674Z,38.46
2023-04-09T10:38:46.830Z,38.55
2023-04-09T10:41:27.760Z,39.52
2023-04-09T10:43:54.184Z,40.34
2023-04-09T10:46:30.607Z,39.87
2023-04-09T10:49:10.341Z,41.06
2023-04-09T10:51:38.881Z,40.74
2023-04-09T10:54:34.667Z,41.81
2023-04-09T10:57:07.005Z,40.58
2023-04-09T10:59:37.642Z,40.86
2023-04-09T11:02:08.312Z,41.49
2023-04-09T11:05:10.374Z,41.44
2023-04-09T11:07:41.400Z,41.64
2023-04-09T11:10:08.527Z,40.66
2023-04-09T11:12:34.981Z,40.75
2023-04-09T11:15:01.468Z,40.30
2023-04-09T11:17:28.047Z,40.07
2023-04-09T11:19:55.551Z,40.25
2023-04-09T11:22:22.315Z,40.52
2023-04-09T11:24:50.739Z,40.32
2023-04-09T11:27:20.854Z,40.71
2023-04-09T11:29:47.620Z,40.32
2023-04-09T11:32:14.077Z,40.45
2023-04-09T11:34:40.884Z,41.14
2023-04-09T11:37:09.387Z,41.73
2023-04-09T11:39:38.771Z,41.58
2023-04-09T11:42:05.270Z,41.24
2023-04-09T11:44:31.824Z,41.97
2023-04-09T11:46:59.071Z,41.94
2023-04-09T11:49:25.742Z,41.17
2023-04-09T11:51:52.217Z,40.69
2023-04-09T11:54:18.750Z,41.29
2023-04-09T11:56:45.236Z,40.99
2023-04-09T11:59:14.528Z,39.79
2023-04-09T12:01:41.695Z,39.91
2023-04-09T12:04:09.451Z,39.31
2023-04-09T12:06:40.458Z,38.48
2023-04-09T12:09:08.770Z,37.68
2023-04-09T12:11:37.208Z,38.00
2023-04-09T12:14:05.018Z,38.68
2023-04-09T12:16:32.996Z,38.27
2023-04-09T12:19:09.230Z,38.16
2023-04-09T12:22:08.043Z,38.41
2023-04-09T12:24:34.548Z,37.72
2023-04-09T12:27:01.582Z,37.17
2023-04-09T12:29:29.789Z,36.99
2023-04-09T12:31:56.293Z,35.96
2023-04-09T12:34:22.840Z,35.40
2023-04-09T12:36:49.407Z,35.46
2023-04-09T12:39:16.008Z,35.01
2023-04-09T12:41:42.521Z,35.35
2023-04-09T12:44:08.997Z,35.46
2023-04-09T12:46:35.510Z,35.74
2023-04-09T12:49:02.136Z,35.49
2023-04-09T12:51:29.311Z,35.51
2023-04-09T12:53:56.103Z,35.05
2023-04-09T12:56:22.714Z,34.92
2023-04-09T12:58:49.267Z,34.20
2023-04-09T13:01:15.747Z,33.49
2023-04-09T13:03:42.470Z,32.69
2023-04-09T13:06:09.059Z,32.01
2023-04-09T13:08:35.823Z,31.35
2023-04-09T13:11:02.723Z,31.28
2023-04-09T13:13:29.665Z,30.88
2023-04-09T13:15:56.298Z,29.86
2023-04-09T13:18:22.753Z,28.62
2023-04-09T13:20:49.472Z,28.25
2023-04-09T13:23:15.969Z,27.90
2023-04-09T13:25:42.488Z,27.46
2023-04-09T13:28:08.964Z,26.93
2023-04-09T13:30:35.657Z,27.64
2023-04-09T13:33:02.489Z,27.42
2023-04-09T13:35:28.973Z,27.16
2023-04-09T13:37:55.512Z,28.24
2023-04-09T13:40:21.912Z,29.42
2023-04-09T13:42:48.337Z,30.51
2023-04-09T13:45:14.844Z,30.38
2023-04-09T13:47:41.308Z,29.73
2023-04-09T13:50:10.176Z,29.22
2023-04-09T13:52:36.623Z,28.15
2023-04-09T13:55:03.974Z,28.66
2023-04-09T13:57:30.460Z,27.00
2023-04-09T13:59:56.966Z,26.29
2023-04-09T14:02:23.891Z,25.75
2023-04-09T14:04:50.536Z,25.52
2023-04-09T14:07:16.971Z,25.67
2023-04-09T14:09:44.025Z,25.95
2023-04-09T14:12:10.819Z,25.41
2023-04-09T14:14:37.243Z,24.50
2023-04-09T14:17:03.790Z,24.39
2023-04-09T14:19:30.363Z,23.38
2023-04-09T14:21:56.886Z,23.75
2023-04-09T14:24:23.377Z,23.35
2023-04-09T14:26:53.223Z,22.64
2023-04-09T14:29:20.944Z,22.67
2023-04-09T14:31:47.664Z,22.13
2023-04-09T14:34:14.216Z,22.72
2023-04-09T14:36:40.773Z,23.49
2023-04-09T14:39:07.285Z,23.39
2023-04-09T14:41:34.360Z,22.78
2023-04-09T14:44:01.041Z,23.35
2023-04-09T14:46:27.696Z,23.73
2023-04-09T14:48:54.480Z,23.00
2023-04-09T14:51:22.560Z,22.92
2023-04-09T14:53:49.044Z,22.98
2023-04-09T14:56:15.565Z,23.81
2023-04-09T14:58:42.493Z,23.55
2023-04-09T15:01:09.059Z,24.13
2023-04-09T15:03:35.760Z,25.78
2023-04-09T15:06:02.336Z,26.40
2023-04-09T15:08:28.852Z,26.91
2023-04-09T15:10:55.325Z,26.47
2023-04-09T15:13:21.785Z,25.84
2023-04-09T15:15:48.240Z,25.66
2023-04-09T15:18:14.703Z,24.21
2023-04-09T15:20:43.298Z,24.50
2023-04-09T15:23:10.760Z,24.13
2023-04-09T15:25:37.173Z,23.25
2023-04-09T15:28:04.445Z,24.05
2023-04-09T15:30:31.151Z,23.80
2023-04-09T15:32:57.857Z,23.52
2023-04-09T15:35:26.574Z,23.63
2023-04-09T15:37:53.090Z,23.64
2023-04-09T15:40:19.757Z,23.67
2023-04-09T15:42:46.278Z,23.22
2023-04-09T15:45:14.796Z,23.53
2023-04-09T15:47:41.277Z,24.08
2023-04-09T15:50:09.474Z,22.93
2023-04-09T15:52:36.347Z,23.20
2023-04-09T15:55:02.789Z,22.99
2023-04-09T15:57:29.325Z,23.16
2023-04-09T15:59:55.708Z,22.88
2023-04-09T16:02:23.498Z,22.93
2023-04-09T16:04:51.902Z,22.90
2023-04-09T16:07:18.374Z,23.42
2023-04-09T16:09:46.180Z,22.90
2023-04-09T16:12:12.885Z,24.03
2023-04-09T16:14:40.473Z,23.96
2023-04-09T16:17:07.014Z,25.07
2023-04-09T16:19:33.469Z,26.26
2023-04-09T16:21:59.912Z,27.46
2023-04-09T16:24:27.110Z,28.43
2023-04-09T16:26:53.586Z,30.94
2023-04-09T16:29:20.257Z,29.96
2023-04-09T16:31:46.848Z,30.63
2023-04-09T16:34:13.295Z,31.10
2023-04-09T16:36:41.493Z,31.30
2023-04-09T16:39:07.940Z,31.67
2023-04-09T16:41:36.818Z,32.21
2023-04-09T16:44:03.612Z,32.36
2023-04-09T16:46:30.247Z,32.91
2023-04-09T16:48:56.826Z,33.31
2023-04-09T16:51:23.253Z,33.71
2023-04-09T16:53:49.680Z,33.76
2023-04-09T16:56:16.697Z,33.87
2023-04-09T16:58:43.268Z,33.97
2023-04-09T17:01:09.704Z,34.50
2023-04-09T17:03:36.211Z,34.19
2023-04-09T17:06:04.410Z,34.81
2023-04-09T17:08:30.944Z,34.55
2023-04-09T17:11:02.246Z,35.17
2023-04-09T17:13:30.018Z,34.50
2023-04-09T17:15:56.820Z,34.75
2023-04-09T17:18:23.893Z,34.90
2023-04-09T17:20:50.933Z,35.47
2023-04-09T17:23:17.628Z,35.51
2023-04-09T17:25:44.329Z,35.93
2023-04-09T17:28:10.853Z,36.17
2023-04-09T17:30:37.370Z,36.54
2023-04-09T17:33:03.859Z,37.08
2023-04-09T17:35:30.304Z,36.92
2023-04-09T17:37:56.714Z,37.26
2023-04-09T17:40:23.216Z,37.47
2023-04-09T17:42:49.916Z,37.69
2023-04-09T17:45:16.465Z,38.32
2023-04-09T17:47:42.966Z,38.13
2023-04-09T17:50:09.565Z,38.16
2023-04-09T17:52:38.801Z,38.25
2023-04-09T17:55:11.587Z,38.95
2023-04-09T17:57:38.629Z,38.79
2023-04-09T18:00:05.621Z,39.24
2023-04-09T18:02:32.771Z,39.75
2023-04-09T18:05:00.501Z,39.79
2023-04-09T18:07:34.017Z,40.43
2023-04-09T18:10:01.700Z,40.68
2023-04-09T18:12:28.276Z,40.64
2023-04-09T18:14:54.829Z,40.96
2023-04-09T18:17:21.609Z,40.82
2023-04-09T18:19:48.159Z,41.31
2023-04-09T18:22:14.739Z,41.95
2023-04-09T18:24:41.213Z,42.46
2023-04-09T18:27:07.650Z,42.41
2023-04-09T18:29:34.188Z,43.02
2023-04-09T18:32:00.900Z,43.17
2023-04-09T18:34:27.470Z,44.06
2023-04-09T18:36:54.231Z,44.31
2023-04-09T18:39:22.709Z,44.76
2023-04-09T18:41:49.437Z,44.99
2023-04-09T18:44:19.053Z,45.85
2023-04-09T18:46:45.585Z,46.50
2023-04-09T18:49:12.047Z,46.64
2023-04-09T18:51:38.497Z,47.52
2023-04-09T18:54:04.965Z,47.49
2023-04-09T18:56:31.417Z,47.28
2023-04-09T18:58:57.916Z,48.08
2023-04-09T19:01:24.584Z,47.97
2023-04-09T19:03:51.305Z,48.66
2023-04-09T19:06:19.622Z,49.25
2023-04-09T19:08:46.855Z,48.93
2023-04-09T19:11:14.106Z,48.88
2023-04-09T19:13:40.806Z,49.03
2023-04-09T19:16:09.282Z,48.98
2023-04-09T19:18:37.021Z,49.19
2023-04-09T19:21:03.633Z,50.07
2023-04-09T19:23:30.662Z,49.52
2023-04-09T19:25:57.372Z,50.25
2023-04-09T19:28:23.949Z,50.07
2023-04-09T19:30:52.429Z,50.43
2023-04-09T19:33:26.430Z,51.98
2023-04-09T19:35:54.678Z,51.09
2023-04-09T19:38:21.648Z,51.35
2023-04-09T19:40:48.205Z,51.44
2023-04-09T19:43:14.877Z,51.42
2023-04-09T19:45:42.506Z,51.94
2023-04-09T19:48:09.065Z,52.30
2023-04-09T19:50:40.904Z,52.83
2023-04-09T19:53:07.387Z,53.05
2023-04-09T19:55:34.886Z,52.41
2023-04-09T19:58:01.996Z,52.61
2023-04-09T20:00:28.626Z,53.14
2023-04-09T20:02:55.734Z,52.58
2023-04-09T20:05:22.748Z,52.59
2023-04-09T20:07:49.729Z,52.76
2023-04-09T20:10:16.338Z,52.82
2023-04-09T20:12:46.812Z,54.05
2023-04-09T20:15:13.624Z,53.57
2023-04-09T20:17:41.825Z,53.85
2023-04-09T20:20:08.675Z,54.37
2023-04-09T20:22:35.161Z,54.46
2023-04-09T20:25:02.100Z,54.76
2023-04-09T20:27:28.566Z,54.75
2023-04-09T20:29:55.076Z,54.35
2023-04-09T20:32:21.566Z,54.41
2023-04-09T20:34:48.123Z,55.11
2023-04-09T20:37:14.535Z,55.70
2023-04-09T20:39:41.712Z,55.13
2023-04-09T20:42:08.170Z,55.42
2023-04-09T20:44:34.598Z,54.90
2023-04-09T20:47:01.073Z,54.52
2023-04-09T20:49:27.978Z,54.55
2023-04-09T20:51:55.002Z,55.22
2023-04-09T20:54:23.085Z,55.71
2023-04-09T20:56:49.991Z,56.51
2023-04-09T20:59:17.199Z,56.82
2023-04-09T21:01:44.107Z,56.67
2023-04-09T21:04:10.989Z,56.56
2023-04-09T21:06:37.522Z,56.95
2023-04-09T21:09:04.105Z,57.35
2023-04-09T21:11:30.775Z,57.17
2023-04-09T21:13:57.935Z,57.36
2023-04-09T21:16:27.023Z,57.46
2023-04-09T21:18:53.746Z,57.46
2023-04-09T21:21:21.515Z,57.08
2023-04-09T21:23:47.985Z,57.04
2023-04-09T21:26:15.051Z,57.03
2023-04-09T21:28:41.546Z,56.97
2023-04-09T21:31:10.066Z,56.73
2023-04-09T21:33:38.850Z,56.27
2023-04-09T21:36:07.036Z,56.05
2023-04-09T21:38:33.550Z,55.72
2023-04-09T21:41:00.007Z,55.46
2023-04-09T21:43:29.191Z,55.57
2023-04-09T21:45:59.009Z,56.71
2023-04-09T21:48:26.414Z,56.47
2023-04-09T21:50:52.888Z,55.83
2023-04-09T21:53:19.354Z,56.73
2023-04-09T21:55:45.968Z,56.15
2023-04-09T21:58:12.447Z,55.85
2023-04-09T22:00:38.918Z,56.55
2023-04-09T22:03:05.529Z,56.22
2023-04-09T22:05:34.230Z,55.69
2023-04-09T22:08:00.741Z,55.68
2023-04-09T22:10:27.715Z,55.49
2023-04-09T22:12:54.240Z,55.43
2023-04-09T22:15:21.998Z,56.17
2023-04-09T22:17:48.766Z,56.06
2023-04-09T22:20:15.387Z,55.72
2023-04-09T22:22:42.373Z,55.27
2023-04-09T22:25:11.023Z,55.16
2023-04-09T22:27:37.753Z,55.19
2023-04-09T22:30:04.731Z,55.10
2023-04-09T22:32:33.338Z,55.03
2023-04-09T22:35:00.024Z,54.92
2023-04-09T22:37:27.694Z,55.10
2023-04-09T22:39:54.170Z,55.20
2023-04-09T22:42:20.808Z,55.32
2023-04-09T22:44:47.361Z,55.46
2023-04-09T22:47:13.795Z,55.54
2023-04-09T22:49:40.260Z,55.69
2023-04-09T22:52:06.804Z,55.63
2023-04-09T22:54:33.265Z,55.69
2023-04-09T22:56:59.689Z,55.73
2023-04-09T22:59:37.258Z,55.58
2023-04-09T23:02:06.089Z,55.58
2023-04-09T23:04:34.099Z,55.65
2023-04-09T23:07:00.738Z,55.73
2023-04-09T23:09:27.120Z,55.84
2023-04-09T23:11:53.608Z,55.93
2023-04-09T23:14:20.071Z,56.26
2023-04-09T23:16:46.528Z,55.74
2023-04-09T23:19:12.987Z,56.16
2023-04-09T23:21:39.402Z,56.03
2023-04-09T23:24:05.950Z,55.65
2023-04-09T23:26:32.546Z,55.93
2023-04-09T23:28:58.959Z,55.43
2023-04-09T23:31:25.453Z,55.88
2023-04-09T23:33:52.233Z,56.32
2023-04-09T23:36:18.884Z,56.24
2023-04-09T23:38:47.004Z,55.87
2023-04-09T23:41:16.316Z,55.98
2023-04-09T23:43:42.702Z,55.98
2023-04-09T23:46:09.111Z,56.22
2023-04-09T23:48:35.548Z,56.25
2023-04-09T23:51:02.022Z,56.45
2023-04-09T23:53:28.473Z,57.19
2023-04-09T23:55:54.879Z,57.04
2023-04-09T23:58:21.781Z,57.21
